Timken, Kansas
Current Conditions -  °F | °C
As of 6:35 PM on Wednesday 22 Oct 2014 (Local Time) from KGBD Reporting Station
Overcast Overcast  
Wind Chill: 64°   Ceiling: 11000
Heat Index: 64°   Visibility: 10mi
Dew Point: 55°   Wind: 16mph
Humidity: 73%   Direction: 180°S
Pressure: 30.03"   Gusts: NA
Location:  38.4163°N, 99.2527°W
Report Text: KGBD 222335Z AUTO 18014KT 10SM FEW070 OVC110 18/13 A3003 RMK AO1
Loading
Personal Weather Stations






























Interactive Weather Map
Tropical Storm Tracking
New forecast layout! Learn more

10-Day Weather Forecast

Advertisements
Track Severe Weather on mobile